sensor_id;sensor_type;location;lat;lon;timestamp;P1;durP1;ratioP1;P2;durP2;ratioP2
22515;SDS011;11424;48.860;9.624;2024-02-23T00:03:27;0.2;;;0.2;;
22515;SDS011;11424;48.860;9.624;2024-02-23T00:08:27;0.1;;;0.4;;
22515;SDS011;11424;48.860;9.624;2024-02-23T00:13:27;0.2;;;0.2;;
22515;SDS011;11424;48.860;9.624;2024-02-23T00:18:27;0.1;;;0.1;;
22515;SDS011;11424;48.860;9.624;2024-02-23T00:23:27;0.2;;;0.2;;
22515;SDS011;11424;48.860;9.624;2024-02-23T00:28:27;0.2;;;0.2;;
22515;SDS011;11424;48.860;9.624;2024-02-23T00:33:27;0.2;;;0.2;;
22515;SDS011;11424;48.860;9.624;2024-02-23T00:38:27;0.2;;;0.2;;
22515;SDS011;11424;48.860;9.624;2024-02-23T00:43:27;0.2;;;0.4;;
22515;SDS011;11424;48.860;9.624;2024-02-23T00:48:27;0.2;;;0.3;;
22515;SDS011;11424;48.860;9.624;2024-02-23T00:53:27;0.1;;;0.1;;
22515;SDS011;11424;48.860;9.624;2024-02-23T00:58:27;0.3;;;1.3;;
22515;SDS011;11424;48.860;9.624;2024-02-23T01:03:27;0.2;;;0.5;;
22515;SDS011;11424;48.860;9.624;2024-02-23T01:08:27;0.1;;;0.1;;
22515;SDS011;11424;48.860;9.624;2024-02-23T01:13:27;0.1;;;0.1;;
22515;SDS011;11424;48.860;9.624;2024-02-23T01:18:27;0.2;;;0.2;;
22515;SDS011;11424;48.860;9.624;2024-02-23T01:23:27;0.2;;;0.2;;
22515;SDS011;11424;48.860;9.624;2024-02-23T01:28:27;0.2;;;0.3;;
22515;SDS011;11424;48.860;9.624;2024-02-23T01:33:27;0.2;;;0.9;;
22515;SDS011;11424;48.860;9.624;2024-02-23T01:38:27;0.1;;;0.2;;
22515;SDS011;11424;48.860;9.624;2024-02-23T01:43:27;0.2;;;0.2;;
22515;SDS011;11424;48.860;9.624;2024-02-23T01:48:27;0.3;;;0.7;;
22515;SDS011;11424;48.860;9.624;2024-02-23T01:53:27;0.2;;;0.2;;
22515;SDS011;11424;48.860;9.624;2024-02-23T01:58:27;0.3;;;0.3;;
22515;SDS011;11424;48.860;9.624;2024-02-23T02:03:27;0.3;;;0.6;;
22515;SDS011;11424;48.860;9.624;2024-02-23T02:08:27;0.3;;;0.3;;
22515;SDS011;11424;48.860;9.624;2024-02-23T02:13:27;0.4;;;0.8;;
22515;SDS011;11424;48.860;9.624;2024-02-23T02:18:27;0.4;;;0.4;;
22515;SDS011;11424;48.860;9.624;2024-02-23T02:23:27;0.3;;;0.7;;
22515;SDS011;11424;48.860;9.624;2024-02-23T02:28:27;0.3;;;0.4;;
22515;SDS011;11424;48.860;9.624;2024-02-23T02:33:27;0.3;;;0.4;;
22515;SDS011;11424;48.860;9.624;2024-02-23T02:38:27;0.3;;;0.9;;
22515;SDS011;11424;48.860;9.624;2024-02-23T02:43:27;0.2;;;0.9;;
22515;SDS011;11424;48.860;9.624;2024-02-23T02:48:27;0.3;;;0.3;;
22515;SDS011;11424;48.860;9.624;2024-02-23T02:53:27;0.3;;;0.6;;
22515;SDS011;11424;48.860;9.624;2024-02-23T02:58:27;0.2;;;0.2;;
22515;SDS011;11424;48.860;9.624;2024-02-23T03:03:27;0.3;;;0.4;;
22515;SDS011;11424;48.860;9.624;2024-02-23T03:08:27;0.3;;;0.4;;
22515;SDS011;11424;48.860;9.624;2024-02-23T03:13:27;1;;;1.5;;
22515;SDS011;11424;48.860;9.624;2024-02-23T03:18:27;0.8;;;0.8;;
22515;SDS011;11424;48.860;9.624;2024-02-23T03:23:27;0.5;;;0.5;;
22515;SDS011;11424;48.860;9.624;2024-02-23T03:28:27;0.4;;;0.8;;
22515;SDS011;11424;48.860;9.624;2024-02-23T03:33:27;0.4;;;1.1;;
22515;SDS011;11424;48.860;9.624;2024-02-23T03:38:27;0.5;;;1.2;;
22515;SDS011;11424;48.860;9.624;2024-02-23T03:43:27;0.2;;;0.2;;
22515;SDS011;11424;48.860;9.624;2024-02-23T03:48:27;0.2;;;0.2;;
22515;SDS011;11424;48.860;9.624;2024-02-23T03:53:27;0.2;;;0.4;;
22515;SDS011;11424;48.860;9.624;2024-02-23T03:58:27;0.4;;;0.5;;
22515;SDS011;11424;48.860;9.624;2024-02-23T04:03:27;0.4;;;0.4;;
22515;SDS011;11424;48.860;9.624;2024-02-23T04:08:27;0.5;;;0.7;;
22515;SDS011;11424;48.860;9.624;2024-02-23T04:13:27;0.4;;;0.4;;
22515;SDS011;11424;48.860;9.624;2024-02-23T04:18:27;0.5;;;1.3;;
22515;SDS011;11424;48.860;9.624;2024-02-23T04:23:27;0.3;;;0.3;;
22515;SDS011;11424;48.860;9.624;2024-02-23T04:28:27;0.3;;;0.4;;
22515;SDS011;11424;48.860;9.624;2024-02-23T04:33:27;0.2;;;0.2;;
22515;SDS011;11424;48.860;9.624;2024-02-23T04:38:27;0.4;;;0.4;;
22515;SDS011;11424;48.860;9.624;2024-02-23T04:43:27;0.5;;;0.5;;
22515;SDS011;11424;48.860;9.624;2024-02-23T04:48:27;0.8;;;1.5;;
22515;SDS011;11424;48.860;9.624;2024-02-23T04:53:27;0.5;;;0.6;;
22515;SDS011;11424;48.860;9.624;2024-02-23T04:58:27;0.3;;;0.8;;
22515;SDS011;11424;48.860;9.624;2024-02-23T05:03:27;0.3;;;0.3;;
22515;SDS011;11424;48.860;9.624;2024-02-23T05:08:27;0.3;;;0.3;;
22515;SDS011;11424;48.860;9.624;2024-02-23T05:13:27;0.4;;;0.4;;
22515;SDS011;11424;48.860;9.624;2024-02-23T05:18:27;0.2;;;0.2;;
22515;SDS011;11424;48.860;9.624;2024-02-23T05:23:27;0.2;;;0.6;;
22515;SDS011;11424;48.860;9.624;2024-02-23T05:28:27;0.3;;;0.3;;
22515;SDS011;11424;48.860;9.624;2024-02-23T05:33:27;0.2;;;0.2;;
22515;SDS011;11424;48.860;9.624;2024-02-23T05:38:27;0.3;;;0.6;;
22515;SDS011;11424;48.860;9.624;2024-02-23T05:43:27;0.3;;;0.3;;
22515;SDS011;11424;48.860;9.624;2024-02-23T05:48:27;0.3;;;0.6;;
22515;SDS011;11424;48.860;9.624;2024-02-23T05:53:27;0.4;;;0.5;;
22515;SDS011;11424;48.860;9.624;2024-02-23T05:58:27;0.4;;;0.9;;
22515;SDS011;11424;48.860;9.624;2024-02-23T06:03:27;0.3;;;0.3;;
22515;SDS011;11424;48.860;9.624;2024-02-23T06:08:27;0.3;;;0.5;;
22515;SDS011;11424;48.860;9.624;2024-02-23T06:13:27;0.4;;;0.8;;
22515;SDS011;11424;48.860;9.624;2024-02-23T06:18:28;0.3;;;0.3;;
22515;SDS011;11424;48.860;9.624;2024-02-23T06:23:27;0.3;;;0.7;;
22515;SDS011;11424;48.860;9.624;2024-02-23T06:28:27;0.3;;;0.3;;
22515;SDS011;11424;48.860;9.624;2024-02-23T06:33:27;0.4;;;0.6;;
22515;SDS011;11424;48.860;9.624;2024-02-23T06:38:27;0.3;;;0.6;;
22515;SDS011;11424;48.860;9.624;2024-02-23T06:43:27;0.4;;;0.8;;
22515;SDS011;11424;48.860;9.624;2024-02-23T06:48:27;0.3;;;0.7;;
22515;SDS011;11424;48.860;9.624;2024-02-23T06:53:27;0.2;;;0.3;;
22515;SDS011;11424;48.860;9.624;2024-02-23T06:58:27;0.4;;;0.6;;
22515;SDS011;11424;48.860;9.624;2024-02-23T07:03:27;0.5;;;0.7;;
22515;SDS011;11424;48.860;9.624;2024-02-23T07:08:27;0.3;;;0.3;;
22515;SDS011;11424;48.860;9.624;2024-02-23T07:13:27;0.4;;;0.4;;
22515;SDS011;11424;48.860;9.624;2024-02-23T07:18:27;0.7;;;1.1;;
22515;SDS011;11424;48.860;9.624;2024-02-23T07:23:27;0.5;;;0.5;;
22515;SDS011;11424;48.860;9.624;2024-02-23T07:28:27;6.6;;;12.4;;
22515;SDS011;11424;48.860;9.624;2024-02-23T07:33:27;12.5;;;21.8;;
22515;SDS011;11424;48.860;9.624;2024-02-23T07:38:27;33.3;;;42.9;;
22515;SDS011;11424;48.860;9.624;2024-02-23T07:43:27;75.7;;;103;;
22515;SDS011;11424;48.860;9.624;2024-02-23T07:48:27;111.4;;;240.1;;
22515;SDS011;11424;48.860;9.624;2024-02-23T07:53:27;177.9;;;376;;
22515;SDS011;11424;48.860;9.624;2024-02-23T07:58:27;109.9;;;219.9;;
22515;SDS011;11424;48.860;9.624;2024-02-23T08:03:27;171.2;;;343.8;;
22515;SDS011;11424;48.860;9.624;2024-02-23T08:08:27;146.1;;;283.6;;
22515;SDS011;11424;48.860;9.624;2024-02-23T08:13:27;96;;;177.7;;
22515;SDS011;11424;48.860;9.624;2024-02-23T08:18:27;81.6;;;149.7;;
22515;SDS011;11424;48.860;9.624;2024-02-23T08:23:28;105.5;;;189.5;;
22515;SDS011;11424;48.860;9.624;2024-02-23T08:28:28;80;;;146.8;;
22515;SDS011;11424;48.860;9.624;2024-02-23T08:33:27;71.6;;;136.4;;
22515;SDS011;11424;48.860;9.624;2024-02-23T08:38:27;70.9;;;130.7;;
22515;SDS011;11424;48.860;9.624;2024-02-23T08:43:27;79;;;144.8;;
22515;SDS011;11424;48.860;9.624;2024-02-23T08:48:28;50.2;;;81.6;;
22515;SDS011;11424;48.860;9.624;2024-02-23T08:53:28;39.8;;;67.3;;
22515;SDS011;11424;48.860;9.624;2024-02-23T08:58:28;59.7;;;101.1;;
22515;SDS011;11424;48.860;9.624;2024-02-23T09:03:27;44.5;;;73.8;;
22515;SDS011;11424;48.860;9.624;2024-02-23T09:08:28;48.2;;;82.1;;
22515;SDS011;11424;48.860;9.624;2024-02-23T09:13:27;46.5;;;84.7;;
22515;SDS011;11424;48.860;9.624;2024-02-23T09:18:28;62.6;;;98.4;;
22515;SDS011;11424;48.860;9.624;2024-02-23T09:23:28;58;;;90.1;;
22515;SDS011;11424;48.860;9.624;2024-02-23T09:28:29;39.5;;;72.6;;
22515;SDS011;11424;48.860;9.624;2024-02-23T09:33:28;39.9;;;70.6;;
22515;SDS011;11424;48.860;9.624;2024-02-23T09:38:28;74.4;;;152.9;;
22515;SDS011;11424;48.860;9.624;2024-02-23T09:43:28;44.2;;;81.2;;
22515;SDS011;11424;48.860;9.624;2024-02-23T09:48:28;42.5;;;75;;
22515;SDS011;11424;48.860;9.624;2024-02-23T09:53:28;62;;;121.9;;
22515;SDS011;11424;48.860;9.624;2024-02-23T09:58:28;85.6;;;174.8;;
22515;SDS011;11424;48.860;9.624;2024-02-23T10:03:28;191.7;;;391.7;;
22515;SDS011;11424;48.860;9.624;2024-02-23T10:08:28;97.1;;;178.9;;
22515;SDS011;11424;48.860;9.624;2024-02-23T10:13:29;47;;;86.2;;
22515;SDS011;11424;48.860;9.624;2024-02-23T10:18:28;49.8;;;94.7;;
22515;SDS011;11424;48.860;9.624;2024-02-23T10:23:28;51.9;;;97.1;;
22515;SDS011;11424;48.860;9.624;2024-02-23T10:28:28;42.8;;;80.8;;
22515;SDS011;11424;48.860;9.624;2024-02-23T10:33:28;45.6;;;86.7;;
22515;SDS011;11424;48.860;9.624;2024-02-23T10:38:28;50.8;;;92.1;;
22515;SDS011;11424;48.860;9.624;2024-02-23T10:43:29;45.1;;;79.7;;
22515;SDS011;11424;48.860;9.624;2024-02-23T10:48:28;49.2;;;86.2;;
22515;SDS011;11424;48.860;9.624;2024-02-23T10:53:28;44.2;;;77;;
22515;SDS011;11424;48.860;9.624;2024-02-23T10:58:28;40.5;;;68.6;;
22515;SDS011;11424;48.860;9.624;2024-02-23T11:03:28;44.2;;;79.5;;
22515;SDS011;11424;48.860;9.624;2024-02-23T11:08:28;41.4;;;71.2;;
22515;SDS011;11424;48.860;9.624;2024-02-23T11:13:33;37.5;;;67.5;;
22515;SDS011;11424;48.860;9.624;2024-02-23T11:18:28;35.5;;;66.1;;
22515;SDS011;11424;48.860;9.624;2024-02-23T11:23:38;39.3;;;67.3;;
22515;SDS011;11424;48.860;9.624;2024-02-23T11:28:28;39.6;;;68.5;;
22515;SDS011;11424;48.860;9.624;2024-02-23T11:33:28;53.6;;;79.1;;
22515;SDS011;11424;48.860;9.624;2024-02-23T11:38:28;54.4;;;80;;
22515;SDS011;11424;48.860;9.624;2024-02-23T11:43:28;52.3;;;75;;
22515;SDS011;11424;48.860;9.624;2024-02-23T11:48:28;60.8;;;92.7;;
22515;SDS011;11424;48.860;9.624;2024-02-23T11:53:28;53.3;;;77.5;;
22515;SDS011;11424;48.860;9.624;2024-02-23T11:58:28;56.2;;;84.8;;
22515;SDS011;11424;48.860;9.624;2024-02-23T12:03:28;57.1;;;81.1;;
22515;SDS011;11424;48.860;9.624;2024-02-23T12:08:29;53.6;;;77.8;;
22515;SDS011;11424;48.860;9.624;2024-02-23T12:13:28;56.8;;;83.5;;
22515;SDS011;11424;48.860;9.624;2024-02-23T12:18:28;54.7;;;80.6;;
22515;SDS011;11424;48.860;9.624;2024-02-23T12:23:37;57.2;;;85.4;;
22515;SDS011;11424;48.860;9.624;2024-02-23T12:28:28;59.3;;;91.2;;
22515;SDS011;11424;48.860;9.624;2024-02-23T12:33:28;59.1;;;88.7;;
22515;SDS011;11424;48.860;9.624;2024-02-23T12:38:28;108.9;;;177.5;;
22515;SDS011;11424;48.860;9.624;2024-02-23T12:43:28;152.9;;;262.4;;
22515;SDS011;11424;48.860;9.624;2024-02-23T12:48:28;75.7;;;124.9;;
22515;SDS011;11424;48.860;9.624;2024-02-23T12:53:32;41.1;;;75.1;;
22515;SDS011;11424;48.860;9.624;2024-02-23T12:58:28;38.1;;;64;;
22515;SDS011;11424;48.860;9.624;2024-02-23T13:03:28;39.2;;;68.7;;
22515;SDS011;11424;48.860;9.624;2024-02-23T13:08:28;41.7;;;74;;
22515;SDS011;11424;48.860;9.624;2024-02-23T13:13:28;41.8;;;72.9;;
22515;SDS011;11424;48.860;9.624;2024-02-23T13:18:28;41.4;;;74.7;;
22515;SDS011;11424;48.860;9.624;2024-02-23T13:23:28;36.1;;;40.2;;
22515;SDS011;11424;48.860;9.624;2024-02-23T13:28:28;23.2;;;25.9;;
22515;SDS011;11424;48.860;9.624;2024-02-23T13:33:28;22.9;;;24.3;;
22515;SDS011;11424;48.860;9.624;2024-02-23T13:38:28;22.3;;;23.6;;
22515;SDS011;11424;48.860;9.624;2024-02-23T13:43:28;24;;;26.8;;
22515;SDS011;11424;48.860;9.624;2024-02-23T13:48:28;24.4;;;28.2;;
22515;SDS011;11424;48.860;9.624;2024-02-23T13:53:28;25.4;;;28.8;;
22515;SDS011;11424;48.860;9.624;2024-02-23T13:58:28;24.4;;;27.2;;
22515;SDS011;11424;48.860;9.624;2024-02-23T14:03:28;24.5;;;28.8;;
22515;SDS011;11424;48.860;9.624;2024-02-23T14:08:28;24.5;;;30.1;;
22515;SDS011;11424;48.860;9.624;2024-02-23T14:13:28;26.2;;;29.4;;
22515;SDS011;11424;48.860;9.624;2024-02-23T14:18:28;24.4;;;26.3;;
22515;SDS011;11424;48.860;9.624;2024-02-23T14:23:28;25.8;;;29.1;;
22515;SDS011;11424;48.860;9.624;2024-02-23T14:28:28;24.3;;;27.1;;
22515;SDS011;11424;48.860;9.624;2024-02-23T14:33:28;24.8;;;27.8;;
22515;SDS011;11424;48.860;9.624;2024-02-23T14:38:28;24.7;;;27.6;;
22515;SDS011;11424;48.860;9.624;2024-02-23T14:43:28;26.9;;;34.9;;
22515;SDS011;11424;48.860;9.624;2024-02-23T14:48:28;26.9;;;35.1;;
22515;SDS011;11424;48.860;9.624;2024-02-23T14:53:28;25.8;;;33.1;;
22515;SDS011;11424;48.860;9.624;2024-02-23T14:58:28;26.1;;;30.8;;
22515;SDS011;11424;48.860;9.624;2024-02-23T15:03:28;27.3;;;34.4;;
22515;SDS011;11424;48.860;9.624;2024-02-23T15:08:28;26.4;;;31;;
22515;SDS011;11424;48.860;9.624;2024-02-23T15:13:28;27.1;;;35.2;;
22515;SDS011;11424;48.860;9.624;2024-02-23T15:18:28;26;;;30.2;;
22515;SDS011;11424;48.860;9.624;2024-02-23T15:23:28;25.6;;;29.8;;
22515;SDS011;11424;48.860;9.624;2024-02-23T15:28:28;24.7;;;28.1;;
22515;SDS011;11424;48.860;9.624;2024-02-23T15:33:28;27.6;;;34.3;;
22515;SDS011;11424;48.860;9.624;2024-02-23T15:38:28;29.4;;;42.6;;
22515;SDS011;11424;48.860;9.624;2024-02-23T15:43:28;30.7;;;39.3;;
22515;SDS011;11424;48.860;9.624;2024-02-23T15:48:28;28.6;;;31.2;;
22515;SDS011;11424;48.860;9.624;2024-02-23T15:53:28;28.2;;;31.1;;
22515;SDS011;11424;48.860;9.624;2024-02-23T15:58:28;26.9;;;29.3;;
22515;SDS011;11424;48.860;9.624;2024-02-23T16:03:28;30.2;;;44;;
22515;SDS011;11424;48.860;9.624;2024-02-23T16:08:38;28.6;;;36.2;;
22515;SDS011;11424;48.860;9.624;2024-02-23T16:13:28;28.5;;;38.2;;
22515;SDS011;11424;48.860;9.624;2024-02-23T16:18:28;25.2;;;30.5;;
22515;SDS011;11424;48.860;9.624;2024-02-23T16:23:28;26.6;;;34.8;;
22515;SDS011;11424;48.860;9.624;2024-02-23T16:28:28;25.1;;;26.8;;
22515;SDS011;11424;48.860;9.624;2024-02-23T16:33:28;24.3;;;26;;
22515;SDS011;11424;48.860;9.624;2024-02-23T16:38:28;24.7;;;26.3;;
22515;SDS011;11424;48.860;9.624;2024-02-23T16:43:28;26;;;33.3;;
22515;SDS011;11424;48.860;9.624;2024-02-23T16:48:28;26.2;;;31.5;;
22515;SDS011;11424;48.860;9.624;2024-02-23T16:53:28;26.3;;;34.4;;
22515;SDS011;11424;48.860;9.624;2024-02-23T16:58:28;25.9;;;33.1;;
22515;SDS011;11424;48.860;9.624;2024-02-23T17:03:28;27.4;;;37.8;;
22515;SDS011;11424;48.860;9.624;2024-02-23T17:08:28;24.4;;;28.3;;
22515;SDS011;11424;48.860;9.624;2024-02-23T17:13:28;23.3;;;24.8;;
22515;SDS011;11424;48.860;9.624;2024-02-23T17:18:28;22.8;;;24.2;;
22515;SDS011;11424;48.860;9.624;2024-02-23T17:23:28;24.8;;;29.7;;
22515;SDS011;11424;48.860;9.624;2024-02-23T17:28:28;25.3;;;31.2;;
22515;SDS011;11424;48.860;9.624;2024-02-23T17:33:28;24.5;;;29.8;;
22515;SDS011;11424;48.860;9.624;2024-02-23T17:38:28;23.7;;;26.6;;
22515;SDS011;11424;48.860;9.624;2024-02-23T17:43:28;24.8;;;28.9;;
22515;SDS011;11424;48.860;9.624;2024-02-23T17:48:28;25;;;30;;
22515;SDS011;11424;48.860;9.624;2024-02-23T17:53:28;22.5;;;25.1;;
22515;SDS011;11424;48.860;9.624;2024-02-23T17:58:28;21.6;;;22.9;;
22515;SDS011;11424;48.860;9.624;2024-02-23T18:03:28;28.8;;;43.7;;
22515;SDS011;11424;48.860;9.624;2024-02-23T18:08:28;24;;;27.8;;
22515;SDS011;11424;48.860;9.624;2024-02-23T18:13:28;24.1;;;27;;
22515;SDS011;11424;48.860;9.624;2024-02-23T18:18:28;23.4;;;26.8;;
22515;SDS011;11424;48.860;9.624;2024-02-23T18:23:28;26.6;;;35.8;;
22515;SDS011;11424;48.860;9.624;2024-02-23T18:28:28;26.3;;;33.2;;
22515;SDS011;11424;48.860;9.624;2024-02-23T18:33:28;27.3;;;36.3;;
22515;SDS011;11424;48.860;9.624;2024-02-23T18:38:28;26.6;;;32.7;;
22515;SDS011;11424;48.860;9.624;2024-02-23T18:43:29;27.2;;;30.5;;
22515;SDS011;11424;48.860;9.624;2024-02-23T18:48:28;25.9;;;32.4;;
22515;SDS011;11424;48.860;9.624;2024-02-23T18:53:28;23.1;;;25.8;;
22515;SDS011;11424;48.860;9.624;2024-02-23T18:58:28;23.8;;;26.5;;
22515;SDS011;11424;48.860;9.624;2024-02-23T19:03:28;22.4;;;24.9;;
22515;SDS011;11424;48.860;9.624;2024-02-23T19:08:28;23.2;;;26;;
22515;SDS011;11424;48.860;9.624;2024-02-23T19:13:28;211.2;;;287.2;;
22515;SDS011;11424;48.860;9.624;2024-02-23T19:18:28;128.3;;;142.5;;
22515;SDS011;11424;48.860;9.624;2024-02-23T19:23:28;31;;;40.3;;
22515;SDS011;11424;48.860;9.624;2024-02-23T19:28:28;27.8;;;37.6;;
22515;SDS011;11424;48.860;9.624;2024-02-23T19:33:28;28.8;;;31.3;;
22515;SDS011;11424;48.860;9.624;2024-02-23T19:38:28;2.2;;;2.3;;
22515;SDS011;11424;48.860;9.624;2024-02-23T19:43:28;2.7;;;4.6;;
22515;SDS011;11424;48.860;9.624;2024-02-23T19:48:28;10.1;;;25.2;;
22515;SDS011;11424;48.860;9.624;2024-02-23T19:53:28;5.5;;;13.4;;
22515;SDS011;11424;48.860;9.624;2024-02-23T19:58:29;5;;;12.9;;
22515;SDS011;11424;48.860;9.624;2024-02-23T20:03:28;5.1;;;12.1;;
22515;SDS011;11424;48.860;9.624;2024-02-23T20:08:28;1.7;;;2.8;;
22515;SDS011;11424;48.860;9.624;2024-02-23T20:13:28;1.2;;;1.3;;
22515;SDS011;11424;48.860;9.624;2024-02-23T20:18:28;0.9;;;1.5;;
22515;SDS011;11424;48.860;9.624;2024-02-23T20:23:28;1.1;;;1.8;;
22515;SDS011;11424;48.860;9.624;2024-02-23T20:28:29;5.6;;;13.5;;
22515;SDS011;11424;48.860;9.624;2024-02-23T20:33:28;4.9;;;11.1;;
22515;SDS011;11424;48.860;9.624;2024-02-23T20:38:28;6.8;;;15.3;;
22515;SDS011;11424;48.860;9.624;2024-02-23T20:43:28;7.7;;;15.4;;
22515;SDS011;11424;48.860;9.624;2024-02-23T20:48:28;6.1;;;8.5;;
22515;SDS011;11424;48.860;9.624;2024-02-23T20:53:28;2.5;;;4;;
22515;SDS011;11424;48.860;9.624;2024-02-23T20:58:28;1.4;;;1.5;;
22515;SDS011;11424;48.860;9.624;2024-02-23T21:03:28;1.3;;;1.8;;
22515;SDS011;11424;48.860;9.624;2024-02-23T21:08:28;2.3;;;3.6;;
22515;SDS011;11424;48.860;9.624;2024-02-23T21:13:28;1.7;;;2.2;;
22515;SDS011;11424;48.860;9.624;2024-02-23T21:18:28;1.6;;;1.8;;
22515;SDS011;11424;48.860;9.624;2024-02-23T21:23:28;1.4;;;1.5;;
22515;SDS011;11424;48.860;9.624;2024-02-23T21:28:28;1.1;;;1.2;;
22515;SDS011;11424;48.860;9.624;2024-02-23T21:33:28;1;;;1.6;;
22515;SDS011;11424;48.860;9.624;2024-02-23T21:38:28;0.9;;;1.7;;
22515;SDS011;11424;48.860;9.624;2024-02-23T21:43:28;1.7;;;3.3;;
22515;SDS011;11424;48.860;9.624;2024-02-23T21:48:28;5.4;;;12.9;;
22515;SDS011;11424;48.860;9.624;2024-02-23T21:53:29;3.6;;;8.4;;
22515;SDS011;11424;48.860;9.624;2024-02-23T21:58:28;2.5;;;5.1;;
22515;SDS011;11424;48.860;9.624;2024-02-23T22:03:28;1.8;;;3;;
22515;SDS011;11424;48.860;9.624;2024-02-23T22:08:28;1.7;;;2;;
22515;SDS011;11424;48.860;9.624;2024-02-23T22:13:29;1.3;;;2.3;;
22515;SDS011;11424;48.860;9.624;2024-02-23T22:18:28;1.3;;;2.4;;
22515;SDS011;11424;48.860;9.624;2024-02-23T22:23:28;0.9;;;0.9;;
22515;SDS011;11424;48.860;9.624;2024-02-23T22:28:28;1.1;;;1.3;;
22515;SDS011;11424;48.860;9.624;2024-02-23T22:33:28;1.5;;;2.6;;
22515;SDS011;11424;48.860;9.624;2024-02-23T22:38:28;1.1;;;1.7;;
22515;SDS011;11424;48.860;9.624;2024-02-23T22:43:28;1.1;;;1.4;;
22515;SDS011;11424;48.860;9.624;2024-02-23T22:48:28;1.4;;;1.5;;
22515;SDS011;11424;48.860;9.624;2024-02-23T22:53:29;1.6;;;2.2;;
22515;SDS011;11424;48.860;9.624;2024-02-23T22:58:28;1.6;;;1.9;;
22515;SDS011;11424;48.860;9.624;2024-02-23T23:03:28;1;;;1.5;;
22515;SDS011;11424;48.860;9.624;2024-02-23T23:08:28;1.3;;;1.8;;
22515;SDS011;11424;48.860;9.624;2024-02-23T23:13:28;1.3;;;1.5;;
22515;SDS011;11424;48.860;9.624;2024-02-23T23:18:28;1.5;;;1.7;;
22515;SDS011;11424;48.860;9.624;2024-02-23T23:23:28;1.4;;;1.7;;
22515;SDS011;11424;48.860;9.624;2024-02-23T23:28:28;1.8;;;3.8;;
22515;SDS011;11424;48.860;9.624;2024-02-23T23:33:28;1.4;;;2.1;;
22515;SDS011;11424;48.860;9.624;2024-02-23T23:38:28;1.4;;;1.5;;
22515;SDS011;11424;48.860;9.624;2024-02-23T23:43:28;1.4;;;2.2;;
22515;SDS011;11424;48.860;9.624;2024-02-23T23:48:28;1;;;1;;
22515;SDS011;11424;48.860;9.624;2024-02-23T23:53:28;1.6;;;2.3;;
22515;SDS011;11424;48.860;9.624;2024-02-23T23:58:28;1.5;;;1.6;;
